sensor_id;sensor_type;location;lat;lon;timestamp;P1;durP1;ratioP1;P2;durP2;ratioP2
53062;SDS011;40529;52.172;10.548;2023-02-17T00:01:09;40.88;;;21.48;;
53062;SDS011;40529;52.172;10.548;2023-02-17T00:06:05;38.35;;;20.70;;
53062;SDS011;40529;52.172;10.548;2023-02-17T00:10:57;33.95;;;19.90;;
53062;SDS011;40529;52.172;10.548;2023-02-17T00:13:23;38.25;;;19.95;;
53062;SDS011;40529;52.172;10.548;2023-02-17T00:15:49;34.83;;;20.30;;
53062;SDS011;40529;52.172;10.548;2023-02-17T00:18:15;35.58;;;20.52;;
53062;SDS011;40529;52.172;10.548;2023-02-17T00:20:41;31.35;;;19.63;;
53062;SDS011;40529;52.172;10.548;2023-02-17T00:23:07;32.70;;;20.55;;
53062;SDS011;40529;52.172;10.548;2023-02-17T00:25:33;34.42;;;20.67;;
53062;SDS011;40529;52.172;10.548;2023-02-17T00:27:59;33.45;;;19.35;;
53062;SDS011;40529;52.172;10.548;2023-02-17T00:30:25;33.63;;;20.70;;
53062;SDS011;40529;52.172;10.548;2023-02-17T00:32:51;34.10;;;20.23;;
53062;SDS011;40529;52.172;10.548;2023-02-17T00:35:17;33.17;;;19.70;;
53062;SDS011;40529;52.172;10.548;2023-02-17T00:37:43;33.75;;;20.10;;
53062;SDS011;40529;52.172;10.548;2023-02-17T00:40:10;32.50;;;19.80;;
53062;SDS011;40529;52.172;10.548;2023-02-17T00:42:36;36.65;;;20.02;;
53062;SDS011;40529;52.172;10.548;2023-02-17T00:45:02;30.92;;;19.08;;
53062;SDS011;40529;52.172;10.548;2023-02-17T00:47:28;31.77;;;19.05;;
53062;SDS011;40529;52.172;10.548;2023-02-17T00:49:54;31.95;;;19.55;;
53062;SDS011;40529;52.172;10.548;2023-02-17T00:52:20;31.90;;;20.08;;
53062;SDS011;40529;52.172;10.548;2023-02-17T00:54:46;35.20;;;19.15;;
53062;SDS011;40529;52.172;10.548;2023-02-17T00:57:13;33.90;;;20.50;;
53062;SDS011;40529;52.172;10.548;2023-02-17T00:59:38;32.55;;;18.85;;
53062;SDS011;40529;52.172;10.548;2023-02-17T01:02:04;32.35;;;19.40;;
53062;SDS011;40529;52.172;10.548;2023-02-17T01:04:30;32.67;;;19.52;;
53062;SDS011;40529;52.172;10.548;2023-02-17T01:06:56;33.38;;;19.45;;
53062;SDS011;40529;52.172;10.548;2023-02-17T01:09:22;32.42;;;19.63;;
53062;SDS011;40529;52.172;10.548;2023-02-17T01:11:48;37.13;;;20.35;;
53062;SDS011;40529;52.172;10.548;2023-02-17T01:14:14;33.60;;;20.67;;
53062;SDS011;40529;52.172;10.548;2023-02-17T01:16:43;33.35;;;19.50;;
53062;SDS011;40529;52.172;10.548;2023-02-17T01:19:12;36.65;;;19.70;;
53062;SDS011;40529;52.172;10.548;2023-02-17T01:21:38;33.83;;;19.27;;
53062;SDS011;40529;52.172;10.548;2023-02-17T01:24:05;31.70;;;19.08;;
53062;SDS011;40529;52.172;10.548;2023-02-17T01:26:32;33.83;;;19.15;;
53062;SDS011;40529;52.172;10.548;2023-02-17T01:28:59;32.15;;;18.50;;
53062;SDS011;40529;52.172;10.548;2023-02-17T01:31:25;32.13;;;18.40;;
53062;SDS011;40529;52.172;10.548;2023-02-17T01:33:52;31.67;;;19.05;;
53062;SDS011;40529;52.172;10.548;2023-02-17T01:36:18;33.78;;;19.35;;
53062;SDS011;40529;52.172;10.548;2023-02-17T01:38:44;32.05;;;18.95;;
53062;SDS011;40529;52.172;10.548;2023-02-17T01:41:11;32.55;;;17.98;;
53062;SDS011;40529;52.172;10.548;2023-02-17T01:43:37;29.13;;;18.52;;
53062;SDS011;40529;52.172;10.548;2023-02-17T01:46:04;31.08;;;18.50;;
53062;SDS011;40529;52.172;10.548;2023-02-17T01:48:41;37.03;;;20.15;;
53062;SDS011;40529;52.172;10.548;2023-02-17T01:51:09;28.95;;;17.92;;
53062;SDS011;40529;52.172;10.548;2023-02-17T01:53:36;31.52;;;18.08;;
53062;SDS011;40529;52.172;10.548;2023-02-17T01:56:03;29.90;;;18.10;;
53062;SDS011;40529;52.172;10.548;2023-02-17T01:58:30;31.75;;;17.90;;
53062;SDS011;40529;52.172;10.548;2023-02-17T02:00:57;28.75;;;17.75;;
53062;SDS011;40529;52.172;10.548;2023-02-17T02:03:24;28.15;;;17.35;;
53062;SDS011;40529;52.172;10.548;2023-02-17T02:05:51;30.17;;;18.10;;
53062;SDS011;40529;52.172;10.548;2023-02-17T02:08:17;30.38;;;18.38;;
53062;SDS011;40529;52.172;10.548;2023-02-17T02:10:43;27.90;;;17.65;;
53062;SDS011;40529;52.172;10.548;2023-02-17T02:13:09;29.88;;;18.08;;
53062;SDS011;40529;52.172;10.548;2023-02-17T02:16:19;28.35;;;17.85;;
53062;SDS011;40529;52.172;10.548;2023-02-17T02:18:47;27.88;;;17.60;;
53062;SDS011;40529;52.172;10.548;2023-02-17T02:34:25;29.05;;;18.55;;
53062;SDS011;40529;52.172;10.548;2023-02-17T02:39:19;27.65;;;17.77;;
53062;SDS011;40529;52.172;10.548;2023-02-17T02:41:46;28.60;;;17.77;;
53062;SDS011;40529;52.172;10.548;2023-02-17T02:44:14;30.35;;;17.70;;
53062;SDS011;40529;52.172;10.548;2023-02-17T02:46:40;29.58;;;18.05;;
53062;SDS011;40529;52.172;10.548;2023-02-17T02:49:06;27.13;;;17.27;;
53062;SDS011;40529;52.172;10.548;2023-02-17T03:06:45;27.08;;;17.13;;
53062;SDS011;40529;52.172;10.548;2023-02-17T03:09:20;26.83;;;17.75;;
53062;SDS011;40529;52.172;10.548;2023-02-17T03:11:46;26.08;;;17.15;;
53062;SDS011;40529;52.172;10.548;2023-02-17T03:14:14;24.85;;;16.40;;
53062;SDS011;40529;52.172;10.548;2023-02-17T03:16:40;22.90;;;15.75;;
53062;SDS011;40529;52.172;10.548;2023-02-17T03:19:07;26.25;;;17.08;;
53062;SDS011;40529;52.172;10.548;2023-02-17T03:21:37;24.42;;;17.35;;
53062;SDS011;40529;52.172;10.548;2023-02-17T03:24:03;27.83;;;17.77;;
53062;SDS011;40529;52.172;10.548;2023-02-17T03:26:29;28.58;;;17.02;;
53062;SDS011;40529;52.172;10.548;2023-02-17T03:28:55;29.85;;;17.13;;
53062;SDS011;40529;52.172;10.548;2023-02-17T03:31:21;26.92;;;18.08;;
53062;SDS011;40529;52.172;10.548;2023-02-17T03:33:47;26.65;;;16.48;;
53062;SDS011;40529;52.172;10.548;2023-02-17T03:36:13;26.13;;;17.23;;
53062;SDS011;40529;52.172;10.548;2023-02-17T03:38:39;26.55;;;17.15;;
53062;SDS011;40529;52.172;10.548;2023-02-17T03:41:05;28.85;;;17.85;;
53062;SDS011;40529;52.172;10.548;2023-02-17T03:43:31;29.27;;;17.75;;
53062;SDS011;40529;52.172;10.548;2023-02-17T03:45:57;26.20;;;16.52;;
53062;SDS011;40529;52.172;10.548;2023-02-17T03:48:23;27.63;;;17.92;;
53062;SDS011;40529;52.172;10.548;2023-02-17T03:50:49;29.42;;;17.95;;
53062;SDS011;40529;52.172;10.548;2023-02-17T03:53:15;27.48;;;18.40;;
53062;SDS011;40529;52.172;10.548;2023-02-17T03:55:41;25.80;;;17.13;;
53062;SDS011;40529;52.172;10.548;2023-02-17T03:58:07;27.20;;;17.92;;
53062;SDS011;40529;52.172;10.548;2023-02-17T04:00:33;25.42;;;17.40;;
53062;SDS011;40529;52.172;10.548;2023-02-17T04:02:59;25.73;;;17.10;;
53062;SDS011;40529;52.172;10.548;2023-02-17T04:05:25;27.42;;;17.63;;
53062;SDS011;40529;52.172;10.548;2023-02-17T04:07:51;27.80;;;17.33;;
53062;SDS011;40529;52.172;10.548;2023-02-17T04:10:17;28.15;;;16.45;;
53062;SDS011;40529;52.172;10.548;2023-02-17T04:12:43;28.23;;;17.40;;
53062;SDS011;40529;52.172;10.548;2023-02-17T04:15:09;24.67;;;16.95;;
53062;SDS011;40529;52.172;10.548;2023-02-17T04:17:36;27.02;;;17.67;;
53062;SDS011;40529;52.172;10.548;2023-02-17T04:20:03;28.70;;;17.65;;
53062;SDS011;40529;52.172;10.548;2023-02-17T04:22:29;27.05;;;18.10;;
53062;SDS011;40529;52.172;10.548;2023-02-17T04:24:55;27.60;;;16.48;;
53062;SDS011;40529;52.172;10.548;2023-02-17T04:27:21;26.98;;;17.23;;
53062;SDS011;40529;52.172;10.548;2023-02-17T04:29:47;28.80;;;18.13;;
53062;SDS011;40529;52.172;10.548;2023-02-17T04:32:13;26.42;;;17.40;;
53062;SDS011;40529;52.172;10.548;2023-02-17T04:34:39;27.58;;;17.50;;
53062;SDS011;40529;52.172;10.548;2023-02-17T04:37:05;26.92;;;17.20;;
53062;SDS011;40529;52.172;10.548;2023-02-17T04:39:31;24.98;;;17.40;;
53062;SDS011;40529;52.172;10.548;2023-02-17T04:41:57;30.08;;;17.27;;
53062;SDS011;40529;52.172;10.548;2023-02-17T04:44:23;27.13;;;17.25;;
53062;SDS011;40529;52.172;10.548;2023-02-17T04:46:49;27.55;;;18.23;;
53062;SDS011;40529;52.172;10.548;2023-02-17T04:49:15;29.13;;;17.00;;
53062;SDS011;40529;52.172;10.548;2023-02-17T04:51:41;28.00;;;17.45;;
53062;SDS011;40529;52.172;10.548;2023-02-17T04:54:07;25.92;;;16.55;;
53062;SDS011;40529;52.172;10.548;2023-02-17T04:56:33;24.90;;;16.55;;
53062;SDS011;40529;52.172;10.548;2023-02-17T04:58:59;26.58;;;16.77;;
53062;SDS011;40529;52.172;10.548;2023-02-17T05:01:25;25.73;;;16.63;;
53062;SDS011;40529;52.172;10.548;2023-02-17T05:03:51;26.23;;;17.45;;
53062;SDS011;40529;52.172;10.548;2023-02-17T05:06:17;25.27;;;17.20;;
53062;SDS011;40529;52.172;10.548;2023-02-17T05:08:43;25.40;;;17.70;;
53062;SDS011;40529;52.172;10.548;2023-02-17T05:11:11;23.45;;;15.98;;
53062;SDS011;40529;52.172;10.548;2023-02-17T05:13:37;24.77;;;16.30;;
53062;SDS011;40529;52.172;10.548;2023-02-17T05:16:03;25.75;;;16.95;;
53062;SDS011;40529;52.172;10.548;2023-02-17T05:18:30;25.33;;;17.17;;
53062;SDS011;40529;52.172;10.548;2023-02-17T05:20:56;23.95;;;15.40;;
53062;SDS011;40529;52.172;10.548;2023-02-17T05:23:22;24.48;;;16.20;;
53062;SDS011;40529;52.172;10.548;2023-02-17T05:25:48;26.15;;;16.95;;
53062;SDS011;40529;52.172;10.548;2023-02-17T05:28:14;23.83;;;16.00;;
53062;SDS011;40529;52.172;10.548;2023-02-17T05:30:39;22.45;;;16.17;;
53062;SDS011;40529;52.172;10.548;2023-02-17T05:33:05;24.17;;;16.27;;
53062;SDS011;40529;52.172;10.548;2023-02-17T05:35:33;22.63;;;15.80;;
53062;SDS011;40529;52.172;10.548;2023-02-17T05:37:59;25.35;;;16.20;;
53062;SDS011;40529;52.172;10.548;2023-02-17T05:40:25;22.80;;;15.73;;
53062;SDS011;40529;52.172;10.548;2023-02-17T05:42:51;23.67;;;16.15;;
53062;SDS011;40529;52.172;10.548;2023-02-17T05:45:17;22.80;;;15.85;;
53062;SDS011;40529;52.172;10.548;2023-02-17T05:47:43;21.55;;;15.02;;
53062;SDS011;40529;52.172;10.548;2023-02-17T05:50:09;23.05;;;15.75;;
53062;SDS011;40529;52.172;10.548;2023-02-17T05:52:35;25.77;;;15.52;;
53062;SDS011;40529;52.172;10.548;2023-02-17T05:55:01;24.90;;;15.65;;
53062;SDS011;40529;52.172;10.548;2023-02-17T05:57:28;23.98;;;15.88;;
53062;SDS011;40529;52.172;10.548;2023-02-17T05:59:54;23.33;;;14.98;;
53062;SDS011;40529;52.172;10.548;2023-02-17T06:02:20;24.58;;;15.77;;
53062;SDS011;40529;52.172;10.548;2023-02-17T06:04:46;24.25;;;15.23;;
53062;SDS011;40529;52.172;10.548;2023-02-17T06:07:12;21.00;;;14.07;;
53062;SDS011;40529;52.172;10.548;2023-02-17T06:09:38;22.50;;;14.52;;
53062;SDS011;40529;52.172;10.548;2023-02-17T06:12:04;21.35;;;14.77;;
53062;SDS011;40529;52.172;10.548;2023-02-17T06:14:30;19.77;;;14.07;;
53062;SDS011;40529;52.172;10.548;2023-02-17T06:16:56;21.65;;;14.95;;
53062;SDS011;40529;52.172;10.548;2023-02-17T06:19:24;24.10;;;14.98;;
53062;SDS011;40529;52.172;10.548;2023-02-17T06:21:50;20.60;;;14.32;;
53062;SDS011;40529;52.172;10.548;2023-02-17T06:24:16;23.10;;;14.45;;
53062;SDS011;40529;52.172;10.548;2023-02-17T06:26:42;21.00;;;13.82;;
53062;SDS011;40529;52.172;10.548;2023-02-17T06:29:08;19.90;;;14.25;;
53062;SDS011;40529;52.172;10.548;2023-02-17T06:31:34;20.70;;;14.07;;
53062;SDS011;40529;52.172;10.548;2023-02-17T06:34:00;20.23;;;13.60;;
53062;SDS011;40529;52.172;10.548;2023-02-17T06:36:26;20.85;;;13.75;;
53062;SDS011;40529;52.172;10.548;2023-02-17T06:38:52;19.60;;;13.88;;
53062;SDS011;40529;52.172;10.548;2023-02-17T06:41:18;21.08;;;14.40;;
53062;SDS011;40529;52.172;10.548;2023-02-17T06:43:44;21.98;;;14.70;;
53062;SDS011;40529;52.172;10.548;2023-02-17T06:46:10;21.25;;;13.48;;
53062;SDS011;40529;52.172;10.548;2023-02-17T06:48:36;20.23;;;13.55;;
53062;SDS011;40529;52.172;10.548;2023-02-17T06:51:02;21.02;;;14.15;;
53062;SDS011;40529;52.172;10.548;2023-02-17T06:53:28;20.45;;;13.80;;
53062;SDS011;40529;52.172;10.548;2023-02-17T06:55:54;21.17;;;14.98;;
53062;SDS011;40529;52.172;10.548;2023-02-17T06:58:20;20.95;;;14.40;;
53062;SDS011;40529;52.172;10.548;2023-02-17T07:00:46;22.35;;;15.27;;
53062;SDS011;40529;52.172;10.548;2023-02-17T07:03:12;21.63;;;14.80;;
53062;SDS011;40529;52.172;10.548;2023-02-17T07:05:38;24.63;;;15.93;;
53062;SDS011;40529;52.172;10.548;2023-02-17T07:08:04;20.98;;;14.93;;
53062;SDS011;40529;52.172;10.548;2023-02-17T07:10:30;22.60;;;15.48;;
53062;SDS011;40529;52.172;10.548;2023-02-17T07:12:56;21.38;;;14.90;;
53062;SDS011;40529;52.172;10.548;2023-02-17T07:15:22;22.08;;;15.75;;
53062;SDS011;40529;52.172;10.548;2023-02-17T07:17:48;23.60;;;15.88;;
53062;SDS011;40529;52.172;10.548;2023-02-17T07:20:14;21.38;;;14.23;;
53062;SDS011;40529;52.172;10.548;2023-02-17T07:22:40;22.60;;;14.13;;
53062;SDS011;40529;52.172;10.548;2023-02-17T07:25:06;21.83;;;13.98;;
53062;SDS011;40529;52.172;10.548;2023-02-17T07:27:34;19.83;;;14.07;;
53062;SDS011;40529;52.172;10.548;2023-02-17T07:30:00;19.70;;;13.82;;
53062;SDS011;40529;52.172;10.548;2023-02-17T07:32:26;18.60;;;13.43;;
53062;SDS011;40529;52.172;10.548;2023-02-17T07:34:52;16.95;;;13.57;;
53062;SDS011;40529;52.172;10.548;2023-02-17T07:37:18;19.08;;;13.00;;
53062;SDS011;40529;52.172;10.548;2023-02-17T07:39:45;21.33;;;14.00;;
53062;SDS011;40529;52.172;10.548;2023-02-17T07:42:11;18.08;;;13.10;;
53062;SDS011;40529;52.172;10.548;2023-02-17T07:44:37;18.45;;;12.85;;
53062;SDS011;40529;52.172;10.548;2023-02-17T07:47:03;18.13;;;12.35;;
53062;SDS011;40529;52.172;10.548;2023-02-17T07:49:29;18.98;;;13.02;;
53062;SDS011;40529;52.172;10.548;2023-02-17T07:51:55;17.70;;;12.65;;
53062;SDS011;40529;52.172;10.548;2023-02-17T07:54:21;17.80;;;11.73;;
53062;SDS011;40529;52.172;10.548;2023-02-17T07:56:47;16.73;;;11.60;;
53062;SDS011;40529;52.172;10.548;2023-02-17T07:59:13;18.23;;;12.00;;
53062;SDS011;40529;52.172;10.548;2023-02-17T08:01:40;15.80;;;11.98;;
53062;SDS011;40529;52.172;10.548;2023-02-17T08:04:06;16.55;;;11.48;;
53062;SDS011;40529;52.172;10.548;2023-02-17T08:06:32;16.02;;;11.43;;
53062;SDS011;40529;52.172;10.548;2023-02-17T08:08:58;16.23;;;11.10;;
53062;SDS011;40529;52.172;10.548;2023-02-17T08:11:42;13.27;;;10.15;;
53062;SDS011;40529;52.172;10.548;2023-02-17T08:14:28;14.68;;;11.18;;
53062;SDS011;40529;52.172;10.548;2023-02-17T08:16:55;16.55;;;11.60;;
53062;SDS011;40529;52.172;10.548;2023-02-17T08:19:21;15.82;;;10.90;;
53062;SDS011;40529;52.172;10.548;2023-02-17T08:21:48;16.30;;;11.38;;
53062;SDS011;40529;52.172;10.548;2023-02-17T08:24:14;14.73;;;11.00;;
53062;SDS011;40529;52.172;10.548;2023-02-17T08:26:40;16.15;;;11.35;;
53062;SDS011;40529;52.172;10.548;2023-02-17T08:29:07;16.15;;;11.27;;
53062;SDS011;40529;52.172;10.548;2023-02-17T08:31:33;14.43;;;10.95;;
53062;SDS011;40529;52.172;10.548;2023-02-17T08:34:01;15.45;;;11.07;;
53062;SDS011;40529;52.172;10.548;2023-02-17T08:36:28;14.95;;;11.15;;
53062;SDS011;40529;52.172;10.548;2023-02-17T08:38:54;15.55;;;10.90;;
53062;SDS011;40529;52.172;10.548;2023-02-17T08:41:22;16.67;;;10.40;;
53062;SDS011;40529;52.172;10.548;2023-02-17T08:43:48;14.23;;;10.60;;
53062;SDS011;40529;52.172;10.548;2023-02-17T08:46:15;16.60;;;10.75;;
53062;SDS011;40529;52.172;10.548;2023-02-17T08:48:41;15.27;;;10.18;;
53062;SDS011;40529;52.172;10.548;2023-02-17T08:51:07;12.73;;;10.30;;
53062;SDS011;40529;52.172;10.548;2023-02-17T08:53:36;14.40;;;9.85;;
53062;SDS011;40529;52.172;10.548;2023-02-17T08:56:02;14.32;;;10.30;;
53062;SDS011;40529;52.172;10.548;2023-02-17T08:58:28;13.82;;;10.18;;
53062;SDS011;40529;52.172;10.548;2023-02-17T09:00:54;13.93;;;10.32;;
53062;SDS011;40529;52.172;10.548;2023-02-17T09:03:20;15.45;;;10.77;;
53062;SDS011;40529;52.172;10.548;2023-02-17T09:05:46;14.20;;;9.65;;
53062;SDS011;40529;52.172;10.548;2023-02-17T09:08:12;16.77;;;10.45;;
53062;SDS011;40529;52.172;10.548;2023-02-17T09:10:38;14.65;;;11.02;;
53062;SDS011;40529;52.172;10.548;2023-02-17T09:13:04;13.93;;;10.20;;
53062;SDS011;40529;52.172;10.548;2023-02-17T09:15:30;15.57;;;10.23;;
53062;SDS011;40529;52.172;10.548;2023-02-17T09:17:56;14.40;;;10.88;;
53062;SDS011;40529;52.172;10.548;2023-02-17T09:20:22;13.93;;;10.30;;
53062;SDS011;40529;52.172;10.548;2023-02-17T09:22:48;14.57;;;10.32;;
53062;SDS011;40529;52.172;10.548;2023-02-17T09:25:14;14.27;;;9.77;;
53062;SDS011;40529;52.172;10.548;2023-02-17T09:27:40;13.20;;;9.43;;
53062;SDS011;40529;52.172;10.548;2023-02-17T09:30:06;13.40;;;9.70;;
53062;SDS011;40529;52.172;10.548;2023-02-17T09:32:32;13.73;;;10.07;;
53062;SDS011;40529;52.172;10.548;2023-02-17T09:34:58;14.13;;;9.85;;
53062;SDS011;40529;52.172;10.548;2023-02-17T09:37:25;13.88;;;9.40;;
53062;SDS011;40529;52.172;10.548;2023-02-17T09:39:51;14.43;;;9.27;;
53062;SDS011;40529;52.172;10.548;2023-02-17T09:42:22;12.80;;;9.60;;
53062;SDS011;40529;52.172;10.548;2023-02-17T09:45:02;14.32;;;9.80;;
53062;SDS011;40529;52.172;10.548;2023-02-17T09:50:28;14.88;;;9.48;;
53062;SDS011;40529;52.172;10.548;2023-02-17T09:52:57;12.52;;;8.95;;
53062;SDS011;40529;52.172;10.548;2023-02-17T09:55:30;12.48;;;8.93;;
53062;SDS011;40529;52.172;10.548;2023-02-17T09:57:58;13.10;;;9.05;;
53062;SDS011;40529;52.172;10.548;2023-02-17T10:00:31;11.60;;;8.65;;
53062;SDS011;40529;52.172;10.548;2023-02-17T10:03:03;13.70;;;8.88;;
53062;SDS011;40529;52.172;10.548;2023-02-17T10:05:35;12.20;;;8.85;;
53062;SDS011;40529;52.172;10.548;2023-02-17T10:08:10;13.13;;;8.90;;
53062;SDS011;40529;52.172;10.548;2023-02-17T10:10:39;13.88;;;8.73;;
53062;SDS011;40529;52.172;10.548;2023-02-17T10:13:07;12.13;;;9.15;;
53062;SDS011;40529;52.172;10.548;2023-02-17T10:15:34;10.30;;;7.53;;
53062;SDS011;40529;52.172;10.548;2023-02-17T10:20:50;11.65;;;8.52;;
53062;SDS011;40529;52.172;10.548;2023-02-17T10:23:21;10.93;;;8.18;;
53062;SDS011;40529;52.172;10.548;2023-02-17T10:31:03;9.23;;;6.17;;
53062;SDS011;40529;52.172;10.548;2023-02-17T10:33:36;9.70;;;7.60;;
53062;SDS011;40529;52.172;10.548;2023-02-17T10:38:49;8.23;;;6.65;;
53062;SDS011;40529;52.172;10.548;2023-02-17T10:41:16;11.20;;;7.43;;
53062;SDS011;40529;52.172;10.548;2023-02-17T10:43:44;11.57;;;7.20;;
53062;SDS011;40529;52.172;10.548;2023-02-17T10:46:11;10.05;;;7.00;;
53062;SDS011;40529;52.172;10.548;2023-02-17T10:48:39;9.57;;;6.20;;
53062;SDS011;40529;52.172;10.548;2023-02-17T10:51:06;13.07;;;6.78;;
53062;SDS011;40529;52.172;10.548;2023-02-17T10:53:33;8.63;;;6.32;;
53062;SDS011;40529;52.172;10.548;2023-02-17T10:59:16;10.77;;;6.88;;
53062;SDS011;40529;52.172;10.548;2023-02-17T11:01:21;6.82;;;4.68;;
53062;SDS011;40529;52.172;10.548;2023-02-17T11:03:57;8.98;;;6.30;;
53062;SDS011;40529;52.172;10.548;2023-02-17T11:06:23;10.07;;;6.53;;
53062;SDS011;40529;52.172;10.548;2023-02-17T11:08:55;9.32;;;6.45;;
53062;SDS011;40529;52.172;10.548;2023-02-17T11:11:27;8.60;;;6.50;;
53062;SDS011;40529;52.172;10.548;2023-02-17T11:16:28;8.20;;;6.18;;
53062;SDS011;40529;52.172;10.548;2023-02-17T11:21:23;9.13;;;5.82;;
53062;SDS011;40529;52.172;10.548;2023-02-17T11:24:00;7.93;;;6.30;;
53062;SDS011;40529;52.172;10.548;2023-02-17T11:26:27;8.90;;;6.03;;
53062;SDS011;40529;52.172;10.548;2023-02-17T11:28:53;9.68;;;6.50;;
53062;SDS011;40529;52.172;10.548;2023-02-17T11:31:27;7.22;;;5.38;;
53062;SDS011;40529;52.172;10.548;2023-02-17T11:33:53;9.02;;;5.85;;
53062;SDS011;40529;52.172;10.548;2023-02-17T11:36:25;7.60;;;5.70;;
53062;SDS011;40529;52.172;10.548;2023-02-17T11:38:51;8.73;;;5.93;;
53062;SDS011;40529;52.172;10.548;2023-02-17T11:41:18;9.10;;;6.18;;
53062;SDS011;40529;52.172;10.548;2023-02-17T11:43:57;9.68;;;5.88;;
53062;SDS011;40529;52.172;10.548;2023-02-17T11:54:43;7.60;;;5.57;;
53062;SDS011;40529;52.172;10.548;2023-02-17T12:02:15;9.25;;;6.18;;
53062;SDS011;40529;52.172;10.548;2023-02-17T12:17:16;7.97;;;5.63;;
53062;SDS011;40529;52.172;10.548;2023-02-17T12:35:23;6.38;;;5.25;;
53062;SDS011;40529;52.172;10.548;2023-02-17T12:37:57;6.80;;;5.65;;
53062;SDS011;40529;52.172;10.548;2023-02-17T12:42:55;7.95;;;5.25;;
53062;SDS011;40529;52.172;10.548;2023-02-17T12:45:25;7.78;;;5.25;;
53062;SDS011;40529;52.172;10.548;2023-02-17T12:47:55;7.53;;;5.45;;
53062;SDS011;40529;52.172;10.548;2023-02-17T12:50:26;6.73;;;5.43;;
53062;SDS011;40529;52.172;10.548;2023-02-17T12:52:56;9.00;;;5.90;;
53062;SDS011;40529;52.172;10.548;2023-02-17T12:55:24;5.95;;;4.30;;
53062;SDS011;40529;52.172;10.548;2023-02-17T12:57:54;9.40;;;5.82;;
53062;SDS011;40529;52.172;10.548;2023-02-17T13:02:48;9.25;;;5.40;;
53062;SDS011;40529;52.172;10.548;2023-02-17T13:05:21;6.75;;;5.50;;
53062;SDS011;40529;52.172;10.548;2023-02-17T13:07:55;9.15;;;6.10;;
53062;SDS011;40529;52.172;10.548;2023-02-17T13:13:02;11.32;;;4.70;;
53062;SDS011;40529;52.172;10.548;2023-02-17T13:15:46;8.05;;;5.90;;
53062;SDS011;40529;52.172;10.548;2023-02-17T13:20:52;15.15;;;8.40;;
53062;SDS011;40529;52.172;10.548;2023-02-17T13:23:26;10.00;;;7.55;;
53062;SDS011;40529;52.172;10.548;2023-02-17T13:28:38;12.43;;;6.65;;
53062;SDS011;40529;52.172;10.548;2023-02-17T13:31:12;8.73;;;6.10;;
53062;SDS011;40529;52.172;10.548;2023-02-17T13:33:40;10.02;;;6.80;;
53062;SDS011;40529;52.172;10.548;2023-02-17T13:36:17;10.00;;;6.60;;
53062;SDS011;40529;52.172;10.548;2023-02-17T13:38:55;12.27;;;7.20;;
53062;SDS011;40529;52.172;10.548;2023-02-17T13:41:23;9.73;;;6.65;;
53062;SDS011;40529;52.172;10.548;2023-02-17T13:43:50;11.65;;;6.75;;
53062;SDS011;40529;52.172;10.548;2023-02-17T13:46:23;10.73;;;6.90;;
53062;SDS011;40529;52.172;10.548;2023-02-17T13:49:00;10.68;;;7.10;;
53062;SDS011;40529;52.172;10.548;2023-02-17T13:51:27;11.65;;;7.80;;
53062;SDS011;40529;52.172;10.548;2023-02-17T13:53:54;11.60;;;7.80;;
53062;SDS011;40529;52.172;10.548;2023-02-17T13:56:25;11.32;;;7.88;;
53062;SDS011;40529;52.172;10.548;2023-02-17T13:58:51;13.27;;;8.63;;
53062;SDS011;40529;52.172;10.548;2023-02-17T14:01:18;12.77;;;9.82;;
53062;SDS011;40529;52.172;10.548;2023-02-17T14:03:49;13.20;;;10.05;;
53062;SDS011;40529;52.172;10.548;2023-02-17T14:06:59;16.48;;;10.70;;
53062;SDS011;40529;52.172;10.548;2023-02-17T14:09:38;14.98;;;11.73;;
53062;SDS011;40529;52.172;10.548;2023-02-17T14:11:58;17.63;;;12.52;;
53062;SDS011;40529;52.172;10.548;2023-02-17T14:14:33;14.98;;;12.15;;
53062;SDS011;40529;52.172;10.548;2023-02-17T14:17:02;16.50;;;11.70;;
53062;SDS011;40529;52.172;10.548;2023-02-17T14:19:28;17.67;;;14.23;;
53062;SDS011;40529;52.172;10.548;2023-02-17T14:24:25;14.40;;;10.83;;
53062;SDS011;40529;52.172;10.548;2023-02-17T14:26:54;18.33;;;13.45;;
53062;SDS011;40529;52.172;10.548;2023-02-17T14:31:48;20.30;;;14.63;;
53062;SDS011;40529;52.172;10.548;2023-02-17T14:34:26;19.77;;;14.25;;
53062;SDS011;40529;52.172;10.548;2023-02-17T14:36:52;17.65;;;14.30;;
53062;SDS011;40529;52.172;10.548;2023-02-17T14:39:18;17.60;;;13.55;;
53062;SDS011;40529;52.172;10.548;2023-02-17T14:41:44;18.75;;;14.07;;
53062;SDS011;40529;52.172;10.548;2023-02-17T14:44:10;17.00;;;13.38;;
53062;SDS011;40529;52.172;10.548;2023-02-17T14:46:36;18.33;;;13.40;;
53062;SDS011;40529;52.172;10.548;2023-02-17T14:49:02;17.63;;;13.35;;
53062;SDS011;40529;52.172;10.548;2023-02-17T14:51:32;17.92;;;12.93;;
53062;SDS011;40529;52.172;10.548;2023-02-17T14:54:03;15.77;;;12.45;;
53062;SDS011;40529;52.172;10.548;2023-02-17T14:56:35;17.58;;;12.88;;
53062;SDS011;40529;52.172;10.548;2023-02-17T14:59:01;16.38;;;12.63;;
53062;SDS011;40529;52.172;10.548;2023-02-17T15:01:27;18.30;;;13.88;;
53062;SDS011;40529;52.172;10.548;2023-02-17T15:03:53;19.77;;;14.32;;
53062;SDS011;40529;52.172;10.548;2023-02-17T15:06:21;17.13;;;13.25;;
53062;SDS011;40529;52.172;10.548;2023-02-17T15:08:48;16.23;;;12.18;;
53062;SDS011;40529;52.172;10.548;2023-02-17T15:11:30;16.20;;;11.43;;
53062;SDS011;40529;52.172;10.548;2023-02-17T15:13:58;13.07;;;9.18;;
53062;SDS011;40529;52.172;10.548;2023-02-17T15:16:24;12.52;;;9.30;;
53062;SDS011;40529;52.172;10.548;2023-02-17T15:18:50;14.38;;;9.90;;
53062;SDS011;40529;52.172;10.548;2023-02-17T15:21:26;14.18;;;9.23;;
53062;SDS011;40529;52.172;10.548;2023-02-17T15:23:53;11.63;;;8.93;;
53062;SDS011;40529;52.172;10.548;2023-02-17T15:26:19;8.43;;;7.00;;
53062;SDS011;40529;52.172;10.548;2023-02-17T15:28:45;9.52;;;7.43;;
53062;SDS011;40529;52.172;10.548;2023-02-17T15:31:11;12.23;;;7.80;;
53062;SDS011;40529;52.172;10.548;2023-02-17T15:33:39;10.75;;;7.50;;
53062;SDS011;40529;52.172;10.548;2023-02-17T15:36:06;9.68;;;6.55;;
53062;SDS011;40529;52.172;10.548;2023-02-17T15:38:32;8.20;;;6.03;;
53062;SDS011;40529;52.172;10.548;2023-02-17T15:40:58;9.27;;;6.72;;
53062;SDS011;40529;52.172;10.548;2023-02-17T15:43:29;8.75;;;6.50;;
53062;SDS011;40529;52.172;10.548;2023-02-17T15:45:56;7.78;;;5.53;;
53062;SDS011;40529;52.172;10.548;2023-02-17T15:48:22;6.97;;;5.53;;
53062;SDS011;40529;52.172;10.548;2023-02-17T15:50:49;7.07;;;5.30;;
53062;SDS011;40529;52.172;10.548;2023-02-17T15:53:15;8.07;;;5.15;;
53062;SDS011;40529;52.172;10.548;2023-02-17T15:55:41;7.72;;;5.18;;
53062;SDS011;40529;52.172;10.548;2023-02-17T15:58:09;9.75;;;5.47;;
53062;SDS011;40529;52.172;10.548;2023-02-17T16:00:37;11.20;;;6.47;;
53062;SDS011;40529;52.172;10.548;2023-02-17T16:03:03;8.38;;;5.30;;
53062;SDS011;40529;52.172;10.548;2023-02-17T16:05:29;8.73;;;6.00;;
53062;SDS011;40529;52.172;10.548;2023-02-17T16:07:57;8.80;;;5.47;;
53062;SDS011;40529;52.172;10.548;2023-02-17T16:10:24;8.38;;;5.20;;
53062;SDS011;40529;52.172;10.548;2023-02-17T16:12:51;8.40;;;5.13;;
53062;SDS011;40529;52.172;10.548;2023-02-17T16:15:21;7.25;;;5.03;;